AUGUST 16, 2018

 

METAR SMJP 160200Z 16004KT CAVOK 24/23 Q1015 NOSIG=